sensor_id;sensor_type;location;lat;lon;timestamp;pressure;altitude;pressure_sealevel;temperature;humidity
49461;BME280;35355;49.198;-0.368;2022-09-09T00:09:50;100188.88;;;16.44;82.31
49461;BME280;35355;49.198;-0.368;2022-09-09T00:12:27;100189.19;;;16.42;82.25
49461;BME280;35355;49.198;-0.368;2022-09-09T00:15:02;100188.38;;;16.42;82.34
49461;BME280;35355;49.198;-0.368;2022-09-09T00:23:14;100180.13;;;16.42;82.20
49461;BME280;35355;49.198;-0.368;2022-09-09T00:25:52;100192.94;;;16.46;82.07
49461;BME280;35355;49.198;-0.368;2022-09-09T00:28:22;100189.66;;;16.44;82.14
49461;BME280;35355;49.198;-0.368;2022-09-09T00:30:48;100196.34;;;16.43;82.03
49461;BME280;35355;49.198;-0.368;2022-09-09T00:33:16;100188.88;;;16.44;82.13
49461;BME280;35355;49.198;-0.368;2022-09-09T00:36:01;100184.16;;;16.44;81.89
49461;BME280;35355;49.198;-0.368;2022-09-09T00:38:37;100179.50;;;16.45;81.94
49461;BME280;35355;49.198;-0.368;2022-09-09T00:41:11;100166.84;;;16.44;81.96
49461;BME280;35355;49.198;-0.368;2022-09-09T00:43:40;100185.00;;;16.45;82.02
49461;BME280;35355;49.198;-0.368;2022-09-09T00:52:02;100175.25;;;16.39;81.80
49461;BME280;35355;49.198;-0.368;2022-09-09T00:54:37;100197.28;;;16.39;82.18
49461;BME280;35355;49.198;-0.368;2022-09-09T00:57:28;100190.31;;;16.41;81.83
49461;BME280;35355;49.198;-0.368;2022-09-09T01:10:56;100186.44;;;16.42;81.77
49461;BME280;35355;49.198;-0.368;2022-09-09T01:13:32;100181.94;;;16.46;81.90
49461;BME280;35355;49.198;-0.368;2022-09-09T01:16:00;100168.78;;;16.43;82.03
49461;BME280;35355;49.198;-0.368;2022-09-09T01:18:30;100170.41;;;16.44;82.09
49461;BME280;35355;49.198;-0.368;2022-09-09T01:24:13;100166.03;;;16.43;81.82
49461;BME280;35355;49.198;-0.368;2022-09-09T01:26:42;100171.84;;;16.42;82.08
49461;BME280;35355;49.198;-0.368;2022-09-09T01:29:19;100183.38;;;16.44;82.24
49461;BME280;35355;49.198;-0.368;2022-09-09T01:34:24;100178.66;;;16.44;82.04
49461;BME280;35355;49.198;-0.368;2022-09-09T01:39:16;100185.81;;;16.45;82.11
49461;BME280;35355;49.198;-0.368;2022-09-09T01:41:42;100176.41;;;16.46;82.10
49461;BME280;35355;49.198;-0.368;2022-09-09T01:44:08;100181.94;;;16.46;82.07
49461;BME280;35355;49.198;-0.368;2022-09-09T01:46:34;100180.50;;;16.49;82.43
49461;BME280;35355;49.198;-0.368;2022-09-09T01:49:02;100180.16;;;16.51;82.02
49461;BME280;35355;49.198;-0.368;2022-09-09T01:51:29;100171.72;;;16.47;82.03
49461;BME280;35355;49.198;-0.368;2022-09-09T01:53:54;100178.72;;;16.53;82.45
49461;BME280;35355;49.198;-0.368;2022-09-09T02:02:18;100180.50;;;16.49;82.14
49461;BME280;35355;49.198;-0.368;2022-09-09T02:04:47;100180.78;;;16.47;82.10
49461;BME280;35355;49.198;-0.368;2022-09-09T02:10:40;100175.59;;;16.46;82.09
49461;BME280;35355;49.198;-0.368;2022-09-09T02:12:45;100178.97;;;16.43;81.87
49461;BME280;35355;49.198;-0.368;2022-09-09T02:15:45;100187.25;;;16.43;82.01
49461;BME280;35355;49.198;-0.368;2022-09-09T02:18:13;100176.53;;;16.41;82.43
49461;BME280;35355;49.198;-0.368;2022-09-09T02:20:41;100178.59;;;16.36;82.36
49461;BME280;35355;49.198;-0.368;2022-09-09T02:23:08;100182.66;;;16.38;82.79
49461;BME280;35355;49.198;-0.368;2022-09-09T02:25:36;100180.75;;;16.39;82.80
49461;BME280;35355;49.198;-0.368;2022-09-09T02:28:04;100188.50;;;16.37;82.86
49461;BME280;35355;49.198;-0.368;2022-09-09T02:30:33;100186.88;;;16.36;82.79
49461;BME280;35355;49.198;-0.368;2022-09-09T02:33:02;100197.38;;;16.34;83.00
49461;BME280;35355;49.198;-0.368;2022-09-09T02:35:30;100196.06;;;16.31;83.11
49461;BME280;35355;49.198;-0.368;2022-09-09T02:38:01;100199.78;;;16.26;83.16
49461;BME280;35355;49.198;-0.368;2022-09-09T02:40:28;100195.91;;;16.27;83.76
49461;BME280;35355;49.198;-0.368;2022-09-09T02:42:54;100199.78;;;16.26;83.71
49461;BME280;35355;49.198;-0.368;2022-09-09T02:45:24;100197.53;;;16.28;83.36
49461;BME280;35355;49.198;-0.368;2022-09-09T02:48:04;100204.34;;;16.31;83.48
49461;BME280;35355;49.198;-0.368;2022-09-09T02:51:00;100207.59;;;16.33;83.56
49461;BME280;35355;49.198;-0.368;2022-09-09T02:53:44;100198.50;;;16.33;83.27
49461;BME280;35355;49.198;-0.368;2022-09-09T02:56:16;100202.09;;;16.33;83.69
49461;BME280;35355;49.198;-0.368;2022-09-09T02:58:42;100200.78;;;16.30;83.90
49461;BME280;35355;49.198;-0.368;2022-09-09T03:01:08;100203.53;;;16.30;83.05
49461;BME280;35355;49.198;-0.368;2022-09-09T03:03:33;100198.50;;;16.33;83.73
49461;BME280;35355;49.198;-0.368;2022-09-09T03:05:59;100204.03;;;16.33;83.83
49461;BME280;35355;49.198;-0.368;2022-09-09T03:08:24;100193.84;;;16.33;84.07
49461;BME280;35355;49.198;-0.368;2022-09-09T03:10:50;100201.78;;;16.35;84.02
49461;BME280;35355;49.198;-0.368;2022-09-09T03:13:17;100200.78;;;16.30;83.95
49461;BME280;35355;49.198;-0.368;2022-09-09T03:15:44;100206.47;;;16.34;84.56
49461;BME280;35355;49.198;-0.368;2022-09-09T03:18:10;100193.63;;;16.29;84.27
49461;BME280;35355;49.198;-0.368;2022-09-09T03:20:35;100205.66;;;16.34;84.31
49461;BME280;35355;49.198;-0.368;2022-09-09T03:23:01;100199.13;;;16.29;84.13
49461;BME280;35355;49.198;-0.368;2022-09-09T03:25:27;100194.78;;;16.28;84.08
49461;BME280;35355;49.198;-0.368;2022-09-09T03:27:54;100198.50;;;16.33;84.20
49461;BME280;35355;49.198;-0.368;2022-09-09T03:30:27;100198.81;;;16.31;83.86
49461;BME280;35355;49.198;-0.368;2022-09-09T03:32:53;100198.34;;;16.29;84.34
49461;BME280;35355;49.198;-0.368;2022-09-09T03:35:18;100211.78;;;16.30;84.34
49461;BME280;35355;49.198;-0.368;2022-09-09T03:37:44;100203.53;;;16.30;84.36
49461;BME280;35355;49.198;-0.368;2022-09-09T03:40:10;100209.03;;;16.30;84.36
49461;BME280;35355;49.198;-0.368;2022-09-09T03:42:37;100221.16;;;16.29;84.17
49461;BME280;35355;49.198;-0.368;2022-09-09T03:45:04;100215.66;;;16.29;84.62
49461;BME280;35355;49.198;-0.368;2022-09-09T03:47:30;100226.69;;;16.29;84.70
49461;BME280;35355;49.198;-0.368;2022-09-09T03:49:55;100233.81;;;16.30;84.65
49461;BME280;35355;49.198;-0.368;2022-09-09T03:52:20;100221.16;;;16.29;84.72
49461;BME280;35355;49.198;-0.368;2022-09-09T03:54:50;100211.31;;;16.28;84.53
49461;BME280;35355;49.198;-0.368;2022-09-09T03:57:16;100211.00;;;16.30;84.77
49461;BME280;35355;49.198;-0.368;2022-09-09T03:59:42;100209.34;;;16.29;84.45
49461;BME280;35355;49.198;-0.368;2022-09-09T04:02:08;100224.75;;;16.30;84.88
49461;BME280;35355;49.198;-0.368;2022-09-09T04:04:34;100208.56;;;16.28;84.92
49461;BME280;35355;49.198;-0.368;2022-09-09T04:06:59;100210.78;;;16.26;85.04
49461;BME280;35355;49.198;-0.368;2022-09-09T04:09:25;100215.66;;;16.29;85.00
49461;BME280;35355;49.198;-0.368;2022-09-09T04:11:50;100226.19;;;16.27;84.63
49461;BME280;35355;49.198;-0.368;2022-09-09T04:14:15;100213.53;;;16.26;84.99
49461;BME280;35355;49.198;-0.368;2022-09-09T04:16:41;100206.41;;;16.25;85.03
49461;BME280;35355;49.198;-0.368;2022-09-09T04:19:11;100217.13;;;16.27;85.36
49461;BME280;35355;49.198;-0.368;2022-09-09T04:21:39;100217.13;;;16.27;85.27
49461;BME280;35355;49.198;-0.368;2022-09-09T04:24:05;100220.16;;;16.25;85.29
49461;BME280;35355;49.198;-0.368;2022-09-09T04:26:32;100216.28;;;16.26;85.67
49461;BME280;35355;49.198;-0.368;2022-09-09T04:28:58;100224.88;;;16.25;85.60
49461;BME280;35355;49.198;-0.368;2022-09-09T04:31:23;100217.94;;;16.27;85.66
49461;BME280;35355;49.198;-0.368;2022-09-09T04:33:52;100218.72;;;16.28;85.41
49461;BME280;35355;49.198;-0.368;2022-09-09T04:36:18;100224.75;;;16.30;85.68
49461;BME280;35355;49.198;-0.368;2022-09-09T04:38:45;100232.19;;;16.29;85.61
49461;BME280;35355;49.198;-0.368;2022-09-09T04:41:11;100227.50;;;16.30;85.87
49461;BME280;35355;49.198;-0.368;2022-09-09T04:43:37;100225.56;;;16.30;85.59
49461;BME280;35355;49.198;-0.368;2022-09-09T04:46:03;100225.06;;;16.28;85.70
49461;BME280;35355;49.198;-0.368;2022-09-09T04:48:29;100236.91;;;16.29;85.47
49461;BME280;35355;49.198;-0.368;2022-09-09T04:51:08;100229.25;;;16.26;85.15
49461;BME280;35355;49.198;-0.368;2022-09-09T04:53:34;100237.31;;;16.22;85.76
49461;BME280;35355;49.198;-0.368;2022-09-09T04:58:29;100231.13;;;16.17;85.77
49461;BME280;35355;49.198;-0.368;2022-09-09T05:03:30;100234.06;;;16.20;86.11
49461;BME280;35355;49.198;-0.368;2022-09-09T05:06:02;100237.31;;;16.22;86.05
49461;BME280;35355;49.198;-0.368;2022-09-09T05:08:29;100241.00;;;16.18;85.32
49461;BME280;35355;49.198;-0.368;2022-09-09T05:10:54;100233.28;;;16.20;86.27
49461;BME280;35355;49.198;-0.368;2022-09-09T05:13:20;100232.44;;;16.19;86.29
49461;BME280;35355;49.198;-0.368;2022-09-09T05:15:55;100237.31;;;16.22;85.86
49461;BME280;35355;49.198;-0.368;2022-09-09T05:18:20;100235.72;;;16.21;86.54
49461;BME280;35355;49.198;-0.368;2022-09-09T05:20:48;100241.38;;;16.25;86.53
49461;BME280;35355;49.198;-0.368;2022-09-09T05:41:49;100250.81;;;15.59;85.22
49461;BME280;35355;49.198;-0.368;2022-09-09T05:44:16;100262.31;;;15.61;86.18
49461;BME280;35355;49.198;-0.368;2022-09-09T05:46:42;100257.53;;;15.67;86.67
49461;BME280;35355;49.198;-0.368;2022-09-09T05:49:08;100263.13;;;15.76;86.74
49461;BME280;35355;49.198;-0.368;2022-09-09T05:51:37;100253.34;;;15.84;86.81
49461;BME280;35355;49.198;-0.368;2022-09-09T05:54:02;100258.44;;;15.90;87.30
49461;BME280;35355;49.198;-0.368;2022-09-09T05:56:29;100257.69;;;15.99;87.34
49461;BME280;35355;49.198;-0.368;2022-09-09T05:58:55;100264.72;;;16.05;87.29
49461;BME280;35355;49.198;-0.368;2022-09-09T06:01:22;100263.47;;;16.11;87.41
49461;BME280;35355;49.198;-0.368;2022-09-09T06:03:50;100257.34;;;16.14;87.25
49461;BME280;35355;49.198;-0.368;2022-09-09T06:06:19;100255.28;;;16.20;87.27
49461;BME280;35355;49.198;-0.368;2022-09-09T06:08:57;100262.63;;;16.24;87.17
49461;BME280;35355;49.198;-0.368;2022-09-09T06:11:30;100267.81;;;16.26;87.37
49461;BME280;35355;49.198;-0.368;2022-09-09T06:13:58;100269.44;;;16.27;87.33
49461;BME280;35355;49.198;-0.368;2022-09-09T06:16:26;100268.50;;;16.31;87.18
49461;BME280;35355;49.198;-0.368;2022-09-09T06:18:54;100270.63;;;16.35;87.24
49461;BME280;35355;49.198;-0.368;2022-09-09T06:21:22;100262.56;;;16.38;87.28
49461;BME280;35355;49.198;-0.368;2022-09-09T06:23:49;100268.25;;;16.42;87.18
49461;BME280;35355;49.198;-0.368;2022-09-09T06:26:32;100274.75;;;16.46;86.94
49461;BME280;35355;49.198;-0.368;2022-09-09T06:28:59;100273.63;;;16.47;87.13
49461;BME280;35355;49.198;-0.368;2022-09-09T06:31:26;100277.72;;;16.49;87.21
49461;BME280;35355;49.198;-0.368;2022-09-09T06:33:59;100275.13;;;16.53;86.93
49461;BME280;35355;49.198;-0.368;2022-09-09T06:36:32;100276.44;;;16.56;87.11
49461;BME280;35355;49.198;-0.368;2022-09-09T06:38:59;100275.03;;;16.58;87.07
49461;BME280;35355;49.198;-0.368;2022-09-09T06:41:29;100281.53;;;16.62;87.04
49461;BME280;35355;49.198;-0.368;2022-09-09T06:43:55;100280.59;;;16.67;87.01
49461;BME280;35355;49.198;-0.368;2022-09-09T06:46:23;100282.41;;;16.72;86.98
49461;BME280;35355;49.198;-0.368;2022-09-09T06:48:52;100288.09;;;16.75;87.08
49461;BME280;35355;49.198;-0.368;2022-09-09T06:51:22;100287.13;;;16.80;87.25
49461;BME280;35355;49.198;-0.368;2022-09-09T06:53:53;100285.38;;;16.84;87.13
49461;BME280;35355;49.198;-0.368;2022-09-09T06:56:28;100290.28;;;16.87;86.68
49461;BME280;35355;49.198;-0.368;2022-09-09T06:58:56;100290.28;;;16.87;86.76
49461;BME280;35355;49.198;-0.368;2022-09-09T07:01:26;100291.94;;;16.88;86.38
49461;BME280;35355;49.198;-0.368;2022-09-09T07:03:55;100292.75;;;16.89;86.89
49461;BME280;35355;49.198;-0.368;2022-09-09T07:06:26;100301.84;;;16.89;86.82
49461;BME280;35355;49.198;-0.368;2022-09-09T07:08:54;100297.94;;;16.90;86.95
49461;BME280;35355;49.198;-0.368;2022-09-09T07:11:22;100298.25;;;16.89;86.72
49461;BME280;35355;49.198;-0.368;2022-09-09T07:13:48;100306.84;;;16.87;86.81
49461;BME280;35355;49.198;-0.368;2022-09-09T07:16:19;100306.31;;;16.85;86.34
49461;BME280;35355;49.198;-0.368;2022-09-09T07:18:47;100312.94;;;16.84;86.92
49461;BME280;35355;49.198;-0.368;2022-09-09T07:21:14;100309.06;;;16.85;86.84
49461;BME280;35355;49.198;-0.368;2022-09-09T07:23:41;100309.28;;;16.89;86.87
49461;BME280;35355;49.198;-0.368;2022-09-09T07:26:12;100318.88;;;16.91;86.64
49461;BME280;35355;49.198;-0.368;2022-09-09T07:28:39;100322.31;;;16.97;86.97
49461;BME280;35355;49.198;-0.368;2022-09-09T07:31:05;100321.84;;;17.04;86.81
49461;BME280;35355;49.198;-0.368;2022-09-09T07:33:33;100333.75;;;17.13;86.80
49461;BME280;35355;49.198;-0.368;2022-09-09T07:36:23;100321.16;;;17.21;86.27
49461;BME280;35355;49.198;-0.368;2022-09-09T07:38:53;100326.81;;;17.24;86.87
49461;BME280;35355;49.198;-0.368;2022-09-09T07:41:22;100331.75;;;17.27;86.50
49461;BME280;35355;49.198;-0.368;2022-09-09T07:43:49;100331.09;;;17.30;86.53
49461;BME280;35355;49.198;-0.368;2022-09-09T07:46:17;100335.97;;;17.33;86.42
49461;BME280;35355;49.198;-0.368;2022-09-09T07:48:50;100343.63;;;17.36;86.39
49461;BME280;35355;49.198;-0.368;2022-09-09T07:51:19;100332.44;;;17.42;86.53
49461;BME280;35355;49.198;-0.368;2022-09-09T07:53:46;100330.66;;;17.46;86.26
49461;BME280;35355;49.198;-0.368;2022-09-09T07:56:17;100342.38;;;17.51;86.34
49461;BME280;35355;49.198;-0.368;2022-09-09T07:58:45;100338.19;;;17.54;86.05
49461;BME280;35355;49.198;-0.368;2022-09-09T08:01:23;100340.31;;;17.57;86.20
49461;BME280;35355;49.198;-0.368;2022-09-09T08:03:57;100346.63;;;17.58;86.04
49461;BME280;35355;49.198;-0.368;2022-09-09T08:06:31;100348.41;;;17.62;86.17
49461;BME280;35355;49.198;-0.368;2022-09-09T08:08:58;100356.91;;;17.66;86.08
49461;BME280;35355;49.198;-0.368;2022-09-09T08:11:28;100349.41;;;17.66;86.19
49461;BME280;35355;49.198;-0.368;2022-09-09T08:13:54;100354.94;;;17.66;86.03
49461;BME280;35355;49.198;-0.368;2022-09-09T08:16:22;100361.13;;;17.72;85.88
49461;BME280;35355;49.198;-0.368;2022-09-09T08:18:49;100364.06;;;17.76;85.82
49461;BME280;35355;49.198;-0.368;2022-09-09T08:21:22;100365.38;;;17.78;85.44
49461;BME280;35355;49.198;-0.368;2022-09-09T08:23:51;100347.66;;;17.70;85.63
49461;BME280;35355;49.198;-0.368;2022-09-09T08:26:38;100365.34;;;17.69;85.44
49461;BME280;35355;49.198;-0.368;2022-09-09T08:29:07;100366.63;;;17.63;85.44
49461;BME280;35355;49.198;-0.368;2022-09-09T08:31:42;100361.75;;;17.60;85.56
49461;BME280;35355;49.198;-0.368;2022-09-09T08:34:08;100378.63;;;17.59;86.05
49461;BME280;35355;49.198;-0.368;2022-09-09T08:36:37;100380.53;;;17.58;85.90
49461;BME280;35355;49.198;-0.368;2022-09-09T08:39:05;100379.56;;;17.54;85.84
49461;BME280;35355;49.198;-0.368;2022-09-09T08:58:31;100406.50;;;17.88;86.05
49461;BME280;35355;49.198;-0.368;2022-09-09T09:04:04;100419.72;;;18.00;85.54
49461;BME280;35355;49.198;-0.368;2022-09-09T09:11:54;100430.94;;;18.04;85.45
49461;BME280;35355;49.198;-0.368;2022-09-09T09:14:28;100434.19;;;18.06;85.37
49461;BME280;35355;49.198;-0.368;2022-09-09T09:17:02;100431.28;;;18.11;85.30
49461;BME280;35355;49.198;-0.368;2022-09-09T09:19:30;100446.28;;;18.19;85.43
49461;BME280;35355;49.198;-0.368;2022-09-09T09:24:54;100441.91;;;18.27;84.92
49461;BME280;35355;49.198;-0.368;2022-09-09T09:28:21;100447.91;;;18.29;85.20
49461;BME280;35355;49.198;-0.368;2022-09-09T09:31:06;100454.44;;;18.33;85.21
49461;BME280;35355;49.198;-0.368;2022-09-09T09:36:01;100451.38;;;18.43;85.24
49461;BME280;35355;49.198;-0.368;2022-09-09T09:38:28;100459.34;;;18.53;85.21
49461;BME280;35355;49.198;-0.368;2022-09-09T09:40:58;100466.22;;;18.65;85.32
49461;BME280;35355;49.198;-0.368;2022-09-09T09:43:35;100468.34;;;18.76;84.92
49461;BME280;35355;49.198;-0.368;2022-09-09T09:46:22;100472.09;;;18.89;84.91
49461;BME280;35355;49.198;-0.368;2022-09-09T09:49:02;100485.78;;;19.03;85.06
49461;BME280;35355;49.198;-0.368;2022-09-09T09:51:30;100483.81;;;19.13;84.96
49461;BME280;35355;49.198;-0.368;2022-09-09T09:56:39;100476.31;;;19.22;84.27
49461;BME280;35355;49.198;-0.368;2022-09-09T09:59:05;100487.91;;;19.24;84.17
49461;BME280;35355;49.198;-0.368;2022-09-09T10:01:32;100484.47;;;19.27;83.91
49461;BME280;35355;49.198;-0.368;2022-09-09T10:04:17;100493.25;;;19.29;83.84
49461;BME280;35355;49.198;-0.368;2022-09-09T10:06:44;100506.44;;;19.32;83.60
49461;BME280;35355;49.198;-0.368;2022-09-09T10:09:25;100498.63;;;19.34;83.61
49461;BME280;35355;49.198;-0.368;2022-09-09T10:12:27;100501.53;;;19.38;83.64
49461;BME280;35355;49.198;-0.368;2022-09-09T10:20:32;100501.53;;;19.46;83.70
49461;BME280;35355;49.198;-0.368;2022-09-09T10:23:26;100509.34;;;19.53;83.47
49461;BME280;35355;49.198;-0.368;2022-09-09T10:28:54;100508.38;;;19.49;82.82
49461;BME280;35355;49.198;-0.368;2022-09-09T10:36:44;100514.50;;;19.72;83.57
49461;BME280;35355;49.198;-0.368;2022-09-09T10:47:35;100501.44;;;19.99;81.93
49461;BME280;35355;49.198;-0.368;2022-09-09T10:50:19;100503.38;;;19.98;
49461;BME280;35355;49.198;-0.368;2022-09-09T10:55:59;100507.25;;;20.06;81.60
49461;BME280;35355;49.198;-0.368;2022-09-09T10:58:42;100510.16;;;20.19;81.61
49461;BME280;35355;49.198;-0.368;2022-09-09T11:03:57;100513.75;;;20.49;81.07
49461;BME280;35355;49.198;-0.368;2022-09-09T11:06:39;100526.25;;;20.64;80.66
49461;BME280;35355;49.198;-0.368;2022-09-09T11:09:16;100517.56;;;20.74;80.27
49461;BME280;35355;49.198;-0.368;2022-09-09T11:11:51;100508.91;;;20.76;79.86
49461;BME280;35355;49.198;-0.368;2022-09-09T11:14:29;100516.91;;;20.77;79.68
49461;BME280;35355;49.198;-0.368;2022-09-09T11:17:00;100518.56;;;20.70;79.23
49461;BME280;35355;49.198;-0.368;2022-09-09T11:19:47;100526.25;;;20.64;79.28
49461;BME280;35355;49.198;-0.368;2022-09-09T11:22:46;100524.13;;;20.61;79.22
49461;BME280;35355;49.198;-0.368;2022-09-09T11:33:20;100531.19;;;20.88;78.95
49461;BME280;35355;49.198;-0.368;2022-09-09T11:38:59;100519.13;;;20.84;77.94
49461;BME280;35355;49.198;-0.368;2022-09-09T11:41:34;100536.44;;;20.81;77.83
49461;BME280;35355;49.198;-0.368;2022-09-09T11:44:08;100537.84;;;20.66;78.69
49461;BME280;35355;49.198;-0.368;2022-09-09T11:46:37;100549.47;;;20.50;77.93
49461;BME280;35355;49.198;-0.368;2022-09-09T11:49:06;100544.97;;;20.37;77.60
49461;BME280;35355;49.198;-0.368;2022-09-09T11:51:43;100539.81;;;20.18;77.59
49461;BME280;35355;49.198;-0.368;2022-09-09T11:54:30;100540.69;;;20.10;77.95
49461;BME280;35355;49.198;-0.368;2022-09-09T11:56:56;100542.47;;;20.06;77.55
49461;BME280;35355;49.198;-0.368;2022-09-09T11:59:28;100537.28;;;20.04;77.69
49461;BME280;35355;49.198;-0.368;2022-09-09T12:02:09;100539.38;;;20.07;77.72
49461;BME280;35355;49.198;-0.368;2022-09-09T12:07:55;100549.44;;;20.21;77.90
49461;BME280;35355;49.198;-0.368;2022-09-09T12:10:32;100544.03;;;20.33;76.79
49461;BME280;35355;49.198;-0.368;2022-09-09T12:15:35;100549.63;;;20.54;75.50
49461;BME280;35355;49.198;-0.368;2022-09-09T12:18:16;100543.19;;;20.62;75.61
49461;BME280;35355;49.198;-0.368;2022-09-09T12:21:34;100537.97;;;20.70;76.40
49461;BME280;35355;49.198;-0.368;2022-09-09T12:24:23;100557.56;;;20.73;76.03
49461;BME280;35355;49.198;-0.368;2022-09-09T12:27:07;100552.69;;;20.70;75.22
49461;BME280;35355;49.198;-0.368;2022-09-09T12:30:14;100551.38;;;20.59;74.82
49461;BME280;35355;49.198;-0.368;2022-09-09T12:32:38;100550.63;;;20.49;74.11
49461;BME280;35355;49.198;-0.368;2022-09-09T12:35:26;100542.00;;;20.42;74.80
49461;BME280;35355;49.198;-0.368;2022-09-09T12:37:59;100553.28;;;20.37;74.23
49461;BME280;35355;49.198;-0.368;2022-09-09T12:40:34;100557.72;;;20.29;74.42
49461;BME280;35355;49.198;-0.368;2022-09-09T12:43:24;100547.63;;;20.25;75.23
49461;BME280;35355;49.198;-0.368;2022-09-09T12:46:08;100557.09;;;20.24;74.51
49461;BME280;35355;49.198;-0.368;2022-09-09T12:48:40;100558.25;;;20.23;74.69
49461;BME280;35355;49.198;-0.368;2022-09-09T12:51:30;100563.94;;;20.26;75.22
49461;BME280;35355;49.198;-0.368;2022-09-09T12:53:56;100561.31;;;20.30;74.48
49461;BME280;35355;49.198;-0.368;2022-09-09T12:56:26;100569.44;;;20.35;74.45
49461;BME280;35355;49.198;-0.368;2022-09-09T12:58:53;100572.22;;;20.35;74.01
49461;BME280;35355;49.198;-0.368;2022-09-09T13:01:26;100561.13;;;20.35;74.37
49461;BME280;35355;49.198;-0.368;2022-09-09T13:03:58;100570.53;;;20.43;73.45
49461;BME280;35355;49.198;-0.368;2022-09-09T13:06:32;100563.81;;;20.53;74.28
49461;BME280;35355;49.198;-0.368;2022-09-09T13:09:00;100559.38;;;20.60;73.48
49461;BME280;35355;49.198;-0.368;2022-09-09T13:11:39;100562.25;;;20.73;74.13
49461;BME280;35355;49.198;-0.368;2022-09-09T13:14:25;100557.69;;;20.77;73.74
49461;BME280;35355;49.198;-0.368;2022-09-09T13:16:59;100562.38;;;20.85;73.02
49461;BME280;35355;49.198;-0.368;2022-09-09T13:19:28;100556.28;;;20.92;72.93
49461;BME280;35355;49.198;-0.368;2022-09-09T13:21:57;100565.03;;;21.02;72.58
49461;BME280;35355;49.198;-0.368;2022-09-09T13:24:31;100567.75;;;21.11;72.45
49461;BME280;35355;49.198;-0.368;2022-09-09T13:26:59;100551.22;;;21.15;71.47
49461;BME280;35355;49.198;-0.368;2022-09-09T13:29:28;100569.63;;;21.19;70.99
49461;BME280;35355;49.198;-0.368;2022-09-09T13:32:03;100566.41;;;21.17;71.78
49461;BME280;35355;49.198;-0.368;2022-09-09T13:34:32;100561.53;;;21.14;71.30
49461;BME280;35355;49.198;-0.368;2022-09-09T13:37:21;100577.69;;;21.12;71.97
49461;BME280;35355;49.198;-0.368;2022-09-09T13:39:53;100583.44;;;21.07;71.51
49461;BME280;35355;49.198;-0.368;2022-09-09T13:42:26;100570.94;;;21.01;71.61
49461;BME280;35355;49.198;-0.368;2022-09-09T13:44:53;100572.06;;;21.00;70.98
49461;BME280;35355;49.198;-0.368;2022-09-09T13:47:35;100580.22;;;20.96;71.63
49461;BME280;35355;49.198;-0.368;2022-09-09T13:50:24;100569.47;;;20.95;71.93
49461;BME280;35355;49.198;-0.368;2022-09-09T14:11:32;100587.00;;;20.01;72.09
49461;BME280;35355;49.198;-0.368;2022-09-09T14:13:58;100582.94;;;19.98;72.14
49461;BME280;35355;49.198;-0.368;2022-09-09T14:16:24;100593.19;;;19.97;72.03
49461;BME280;35355;49.198;-0.368;2022-09-09T14:18:52;100581.47;;;20.01;72.09
49461;BME280;35355;49.198;-0.368;2022-09-09T14:21:17;100586.34;;;20.04;71.86
49461;BME280;35355;49.198;-0.368;2022-09-09T14:23:43;100597.56;;;20.07;71.86
49461;BME280;35355;49.198;-0.368;2022-09-09T14:26:08;100585.16;;;20.13;71.83
49461;BME280;35355;49.198;-0.368;2022-09-09T14:28:36;100586.13;;;20.18;71.67
49461;BME280;35355;49.198;-0.368;2022-09-09T14:31:03;100584.78;;;20.24;71.38
49461;BME280;35355;49.198;-0.368;2022-09-09T14:33:30;100570.44;;;20.30;70.86
49461;BME280;35355;49.198;-0.368;2022-09-09T14:36:01;100598.78;;;20.36;71.10
49461;BME280;35355;49.198;-0.368;2022-09-09T14:38:33;100583.75;;;20.37;71.10
49461;BME280;35355;49.198;-0.368;2022-09-09T14:41:00;100595.69;;;20.38;70.92
49461;BME280;35355;49.198;-0.368;2022-09-09T14:43:28;100588.50;;;20.37;70.78
49461;BME280;35355;49.198;-0.368;2022-09-09T14:45:55;100592.59;;;20.39;70.40
49461;BME280;35355;49.198;-0.368;2022-09-09T14:48:21;100598.78;;;20.36;70.33
49461;BME280;35355;49.198;-0.368;2022-09-09T14:50:46;100586.75;;;20.32;70.74
49461;BME280;35355;49.198;-0.368;2022-09-09T14:53:12;100596.06;;;20.27;71.01
49461;BME280;35355;49.198;-0.368;2022-09-09T14:55:38;100608.28;;;20.26;71.15
49461;BME280;35355;49.198;-0.368;2022-09-09T14:58:04;100591.16;;;20.24;71.39
49461;BME280;35355;49.198;-0.368;2022-09-09T15:00:31;100595.41;;;20.22;71.31
49461;BME280;35355;49.198;-0.368;2022-09-09T15:02:57;100599.31;;;20.21;71.30
49461;BME280;35355;49.198;-0.368;2022-09-09T15:05:26;100602.09;;;20.21;71.33
49461;BME280;35355;49.198;-0.368;2022-09-09T15:08:05;100597.06;;;20.14;71.45
49461;BME280;35355;49.198;-0.368;2022-09-09T15:10:31;100601.63;;;20.10;70.90
49461;BME280;35355;49.198;-0.368;2022-09-09T15:12:57;100599.84;;;20.05;70.92
49461;BME280;35355;49.198;-0.368;2022-09-09T15:15:22;100595.66;;;19.99;70.63
49461;BME280;35355;49.198;-0.368;2022-09-09T15:17:48;100606.41;;;19.92;70.75
49461;BME280;35355;49.198;-0.368;2022-09-09T15:20:14;100607.06;;;19.89;70.97
49461;BME280;35355;49.198;-0.368;2022-09-09T15:22:40;100608.84;;;19.85;70.84
49461;BME280;35355;49.198;-0.368;2022-09-09T15:25:07;100608.22;;;19.79;71.12
49461;BME280;35355;49.198;-0.368;2022-09-09T15:27:33;100619.09;;;19.75;71.08
49461;BME280;35355;49.198;-0.368;2022-09-09T15:30:00;100622.03;;;19.70;71.17
49461;BME280;35355;49.198;-0.368;2022-09-09T15:32:26;100626.91;;;19.64;71.35
49461;BME280;35355;49.198;-0.368;2022-09-09T15:34:51;100626.25;;;19.59;71.60
49461;BME280;35355;49.198;-0.368;2022-09-09T15:37:18;100626.91;;;19.56;71.93
49461;BME280;35355;49.198;-0.368;2022-09-09T15:39:44;100623.19;;;19.52;71.96
49461;BME280;35355;49.198;-0.368;2022-09-09T15:42:15;100624.13;;;19.47;72.24
49461;BME280;35355;49.198;-0.368;2022-09-09T15:44:41;100635.06;;;19.43;72.03
49461;BME280;35355;49.198;-0.368;2022-09-09T15:47:10;100627.88;;;19.42;72.21
49461;BME280;35355;49.198;-0.368;2022-09-09T15:49:40;100626.09;;;19.38;72.22